Time;durP1;ratioP1;P1;durP2;ratioP2;P2;SDS_P1;SDS_P2;PMS_P1;PMS_P2;Temp;Humidity;BMP_temperature;BMP_pressure;BME280_temperature;BME280_humidity;BME280_pressure;Samples;Min_cycle;Max_cycle;Signal;HPM_P1;HPM_P2
2023/10/19 00:01:34;;;;;;;13.97;12.27;;;7.80;99.90;;;-141.84;73.00;19480.53;5039213;28;20350;-59
2023/10/19 00:04:04;;;;;;;13.73;12.00;;;7.80;99.90;;;-141.84;72.86;19504.94;5050876;28;20261;-60
2023/10/19 00:06:32;;;;;;;13.60;11.00;;;7.80;99.90;;;-141.84;72.92;19486.66;5057547;28;20221;-60
2023/10/19 00:09:01;;;;;;;14.37;11.77;;;7.80;99.90;;;-141.84;72.66;19460.22;5054517;28;20260;-61
2023/10/19 00:11:28;;;;;;;12.00;10.80;;;7.80;99.90;;;-141.84;72.55;19464.28;5044606;28;20232;-59
2023/10/19 00:13:57;;;;;;;13.70;11.80;;;7.80;99.90;;;-141.84;72.82;19462.25;5037358;28;20264;-60
2023/10/19 00:16:29;;;;;;;15.27;12.20;;;7.80;99.90;;;-141.84;72.62;19470.38;5045407;28;20236;-59
2023/10/19 00:19:00;;;;;;;13.70;12.10;;;7.90;99.90;;;-141.84;72.48;19480.53;5044781;28;20241;-60
2023/10/19 00:21:29;;;;;;;15.60;11.73;;;7.90;99.90;;;-141.84;72.49;19484.59;5045669;28;20208;-59
2023/10/19 00:24:01;;;;;;;13.23;11.33;;;7.90;99.90;;;-141.84;72.00;19484.59;5056874;28;20339;-60
2023/10/19 00:26:30;;;;;;;13.27;11.87;;;7.90;99.90;;;-141.84;72.56;19458.19;5044845;28;20233;-59
2023/10/19 00:28:58;;;;;;;12.90;10.77;;;8.00;99.90;;;-141.84;73.14;19468.34;5044964;28;20282;-58
2023/10/19 00:31:28;;;;;;;14.60;11.97;;;8.00;99.90;;;-141.84;72.70;19474.44;5058770;28;20232;-60
2023/10/19 00:33:57;;;;;;;13.80;11.30;;;8.00;99.90;;;-141.84;72.69;19456.16;5056769;28;20569;-60
2023/10/19 00:36:26;;;;;;;14.00;11.33;;;8.00;99.90;;;-141.84;72.43;19476.47;5064964;28;20212;-60
2023/10/19 00:38:56;;;;;;;12.53;11.23;;;8.00;99.90;;;-141.84;72.05;19460.22;5064422;28;20240;-58
2023/10/19 00:41:29;;;;;;;12.70;11.37;;;8.00;99.90;;;-141.84;71.82;19484.59;5064363;28;20282;-60
2023/10/19 00:44:02;;;;;;;14.80;12.10;;;8.10;99.90;;;-141.84;71.36;19506.97;5056687;28;20311;-59
2023/10/19 00:46:37;;;;;;;13.23;11.83;;;8.10;99.90;;;-141.84;71.20;19506.97;5064858;28;20647;-60
2023/10/19 00:49:07;;;;;;;13.63;11.17;;;8.10;99.90;;;-141.84;71.88;19476.47;5064455;28;20223;-59
2023/10/19 00:51:44;;;;;;;12.53;10.93;;;8.10;99.90;;;-141.84;71.96;19504.94;5064673;28;20698;-60
2023/10/19 00:54:26;;;;;;;12.50;11.10;;;8.10;99.90;;;-141.84;72.06;19484.59;5056536;28;21092;-60
2023/10/19 00:56:58;;;;;;;13.50;11.83;;;8.10;99.90;;;-141.84;72.27;19488.69;5064180;28;20316;-59
2023/10/19 00:59:30;;;;;;;13.20;11.37;;;8.10;99.90;;;-141.84;72.18;19476.47;5056454;28;20303;-59
2023/10/19 01:02:16;;;;;;;13.13;10.73;;;8.10;99.90;;;-141.84;72.20;19484.59;5046966;28;20260;-60
2023/10/19 01:04:50;;;;;;;13.70;11.57;;;8.20;99.90;;;-141.84;72.60;19480.53;5044219;28;20232;-59
2023/10/19 01:07:22;;;;;;;12.50;11.20;;;8.10;99.90;;;-141.84;72.32;19506.97;5048272;28;20234;-60
2023/10/19 01:09:56;;;;;;;13.73;12.10;;;8.10;99.90;;;-141.84;72.63;19472.41;5048449;28;20214;-60
2023/10/19 01:12:29;;;;;;;13.43;11.00;;;8.10;99.90;;;-141.84;72.80;19496.81;5046403;28;20220;-59
2023/10/19 01:15:16;;;;;;;13.50;11.17;;;8.20;99.90;;;-141.84;71.65;19533.38;5061827;28;20316;-59
2023/10/19 01:17:51;;;;;;;13.27;11.40;;;8.20;99.90;;;-141.84;72.17;19496.81;5064071;28;20275;-60
2023/10/19 01:20:23;;;;;;;13.87;11.70;;;8.20;99.90;;;-141.84;72.20;19500.88;5060764;28;20766;-59
2023/10/19 01:23:05;;;;;;;12.47;10.60;;;8.20;99.90;;;-141.84;72.69;19484.59;5063273;28;20271;-59
2023/10/19 01:25:38;;;;;;;13.53;11.63;;;8.20;99.90;;;-141.84;72.63;19470.38;5051042;28;20286;-59
2023/10/19 01:28:10;;;;;;;14.10;11.70;;;8.20;99.90;;;-141.84;73.13;19466.31;5035797;28;20225;-60
2023/10/19 01:30:39;;;;;;;13.00;10.67;;;8.10;99.90;;;-141.84;73.56;19488.69;5051555;28;20292;-60
2023/10/19 01:33:12;;;;;;;13.10;11.20;;;8.10;99.90;;;-141.84;73.46;19496.81;5063778;28;20299;-59
2023/10/19 01:38:30;;;;;;;13.17;11.63;;;8.20;99.90;;;-141.84;73.39;19486.66;5063486;28;20324;-59
2023/10/19 01:40:59;;;;;;;12.47;11.17;;;8.10;99.90;;;-141.84;73.29;19509.00;5063443;28;20224;-59
2023/10/19 01:43:30;;;;;;;13.27;11.70;;;8.20;99.90;;;-141.84;72.90;19509.00;5056190;28;20248;-59
2023/10/19 01:46:03;;;;;;;13.10;10.80;;;8.20;99.90;;;-141.84;73.00;19490.72;5036332;28;20740;-60
2023/10/19 01:48:33;;;;;;;12.53;11.23;;;8.20;99.90;;;-141.84;73.33;19486.66;5044120;28;20213;-59
2023/10/19 01:51:04;;;;;;;12.93;11.00;;;8.10;99.90;;;-141.84;73.01;19517.13;5043641;28;20752;-59
2023/10/19 01:53:36;;;;;;;14.03;12.33;;;8.10;99.90;;;-141.84;73.29;19476.47;5043018;28;20225;-59
2023/10/19 01:56:05;;;;;;;13.43;11.97;;;8.10;99.90;;;-141.84;73.43;19494.78;5045456;28;20233;-61
2023/10/19 01:58:36;;;;;;;13.87;12.17;;;8.10;99.90;;;-141.84;73.41;19456.16;5042302;28;20240;-59
2023/10/19 02:01:09;;;;;;;15.97;11.23;;;8.10;99.90;;;-141.84;74.01;19502.91;5043320;28;20309;-60
2023/10/19 02:03:41;;;;;;;12.50;11.03;;;8.10;99.90;;;-141.84;74.68;19480.53;5043332;28;20247;-58
2023/10/19 02:06:16;;;;;;;12.47;11.17;;;8.10;99.90;;;-141.84;74.31;19498.84;5049222;28;20224;-59
2023/10/19 02:08:51;;;;;;;13.20;10.90;;;8.10;99.90;;;-141.84;73.74;19486.66;5062495;28;20294;-60
2023/10/19 02:11:21;;;;;;;11.90;10.70;;;8.20;99.90;;;-141.84;74.34;19478.50;5062370;28;20228;-59
2023/10/19 02:13:52;;;;;;;12.63;11.20;;;8.10;99.90;;;-141.84;75.08;19527.28;5061615;28;20224;-59
2023/10/19 02:16:22;;;;;;;12.53;11.10;;;8.10;99.90;;;-141.84;75.41;19480.53;5060819;28;20393;-60
2023/10/19 02:18:51;;;;;;;12.93;11.63;;;8.10;99.90;;;-141.84;76.03;19480.53;5062788;28;20215;-60
2023/10/19 02:21:21;;;;;;;13.93;11.90;;;8.10;99.90;;;-141.84;76.77;19464.28;5063401;28;20270;-60
2023/10/19 02:23:50;;;;;;;14.10;11.87;;;8.30;99.90;;;-141.84;77.44;19446.00;5062368;28;20315;-59
2023/10/19 02:26:19;;;;;;;13.10;11.67;;;8.00;99.90;;;-141.84;77.75;19466.31;5044963;28;20260;-59
2023/10/19 02:28:50;;;;;;;14.10;11.77;;;8.00;99.90;;;-141.84;77.64;19458.19;5062105;28;20227;-59
2023/10/19 02:31:21;;;;;;;14.60;11.90;;;8.00;99.90;;;-141.84;78.41;19443.97;5063188;28;20232;-59
2023/10/19 02:33:52;;;;;;;16.07;12.90;;;7.90;99.90;;;-141.84;79.10;19405.34;5061936;28;20208;-59
2023/10/19 02:36:20;;;;;;;14.47;12.73;;;7.90;99.90;;;-141.84;80.24;19427.72;5062901;28;20243;-59
2023/10/19 02:38:52;;;;;;;14.30;12.40;;;7.80;99.90;;;-141.84;80.36;19417.56;5062571;28;20225;-59
2023/10/19 02:41:21;;;;;;;15.00;13.10;;;7.80;99.90;;;-141.84;81.22;19425.69;5062358;28;20235;-59
2023/10/19 02:44:00;;;;;;;15.57;12.80;;;7.70;99.90;;;-141.84;81.77;19427.72;5061142;28;20289;-61
2023/10/19 02:46:28;;;;;;;15.77;13.17;;;7.70;99.90;;;-141.84;82.33;19395.19;5063124;28;20240;-60
2023/10/19 02:48:57;;;;;;;15.23;13.27;;;7.60;99.90;;;-141.84;82.77;19409.41;5062872;28;20259;-60
2023/10/19 02:51:25;;;;;;;16.43;12.73;;;7.60;99.90;;;-141.84;83.02;19431.78;5063096;28;20243;-59
2023/10/19 02:53:54;;;;;;;15.83;13.13;;;7.60;99.90;;;-141.84;83.20;19391.13;5057900;28;20225;-61
2023/10/19 02:56:23;;;;;;;15.80;13.10;;;7.60;99.90;;;-141.84;83.91;19413.47;5062228;28;20234;-60
2023/10/19 02:58:52;;;;;;;16.03;13.73;;;7.60;99.90;;;-141.84;83.62;19395.19;5053828;28;20734;-60
2023/10/19 03:01:21;;;;;;;14.60;12.63;;;7.60;99.90;;;-141.84;84.14;19395.19;5042831;28;20237;-60
2023/10/19 03:03:54;;;;;;;16.67;13.90;;;7.50;99.90;;;-141.84;84.52;19411.44;5042352;28;20205;-59
2023/10/19 03:06:21;;;;;;;15.63;13.57;;;7.40;99.90;;;-141.84;84.76;19395.19;5043227;28;20243;-59
2023/10/19 03:08:57;;;;;;;17.00;13.97;;;7.60;99.90;;;-141.84;84.54;19448.03;5042621;28;20252;-58
2023/10/19 03:11:27;;;;;;;16.20;14.10;;;7.60;99.90;;;-141.84;84.55;19443.97;5036604;28;20240;-59
2023/10/19 03:13:57;;;;;;;16.93;13.73;;;7.60;99.90;;;-141.84;84.97;19431.78;5034010;28;20229;-59
2023/10/19 03:16:26;;;;;;;16.77;13.73;;;7.50;99.90;;;-141.84;85.36;19468.34;5042937;28;20221;-59
2023/10/19 03:18:55;;;;;;;17.00;13.77;;;7.50;99.90;;;-141.84;86.14;19387.06;5042463;28;20263;-59
2023/10/19 03:21:26;;;;;;;16.90;14.23;;;7.50;99.90;;;-141.84;86.43;19482.56;5042557;28;20707;-59
2023/10/19 03:23:56;;;;;;;16.10;13.70;;;7.50;99.90;;;-141.84;86.80;19504.94;5034059;28;20229;-59
2023/10/19 03:26:30;;;;;;;17.23;14.63;;;7.50;99.90;;;-141.84;86.76;19521.19;5041570;28;20289;-59
2023/10/19 03:29:03;;;;;;;17.63;14.23;;;7.50;99.90;;;-141.84;87.49;19561.84;5042361;28;20237;-59
2023/10/19 03:31:32;;;;;;;15.37;13.70;;;7.50;99.90;;;-141.84;88.13;19651.25;5042089;28;20268;-58
2023/10/19 03:34:05;;;;;;;17.80;14.60;;;7.50;99.90;;;-141.84;88.31;19693.94;5034420;28;20286;-58
2023/10/19 03:36:33;;;;;;;20.43;14.90;;;7.50;99.90;;;-141.84;88.65;19787.41;5042729;28;20205;-60
2023/10/19 03:39:11;;;;;;;18.17;14.60;;;7.40;99.90;;;-141.84;88.72;19817.91;5042019;28;20252;-58
2023/10/19 03:41:44;;;;;;;17.43;14.57;;;7.50;99.90;;;-141.84;88.95;19872.78;5041378;28;20313;-59
2023/10/19 03:44:19;;;;;;;17.90;14.70;;;7.40;99.90;;;-141.84;89.13;19964.25;5033962;28;20237;-59
2023/10/19 03:46:57;;;;;;;18.43;14.97;;;7.50;99.90;;;-141.84;89.29;19984.56;5046386;28;20240;-59
2023/10/19 03:49:33;;;;;;;18.43;15.17;;;7.50;99.90;;;-141.84;89.30;20047.56;5045702;28;20294;-58
2023/10/19 03:52:19;;;;;;;17.23;14.60;;;7.50;99.90;;;-141.84;89.46;20094.31;5036713;28;20283;-59
2023/10/19 03:54:49;;;;;;;19.23;15.17;;;7.40;99.90;;;-141.84;89.85;20317.91;5044020;28;20217;-58
2023/10/19 03:57:24;;;;;;;19.50;16.30;;;7.40;99.90;;;-141.84;90.07;20494.75;5045616;28;20198;-58
2023/10/19 03:59:56;;;;;;;17.70;15.77;;;;;;;-141.84;90.15;20478.47;5042196;28;20727;-59
2023/10/19 04:02:27;;;;;;;17.80;15.13;;;7.40;99.90;;;-141.84;90.21;20492.72;5045302;28;20237;-60
2023/10/19 04:04:57;;;;;;;19.57;15.67;;;7.50;99.90;;;-141.84;90.32;20571.97;5045750;28;20595;-58
2023/10/19 04:07:26;;;;;;;18.27;15.27;;;7.60;99.90;;;-141.84;90.04;20500.84;5045127;28;20275;-59
2023/10/19 04:10:09;;;;;;;20.20;14.73;;;7.60;99.90;;;-141.84;90.29;20624.84;5039753;28;20682;-58
2023/10/19 04:12:42;;;;;;;18.47;15.80;;;7.60;99.90;;;-141.84;90.59;21147.28;5044517;28;20669;-61
2023/10/19 04:15:14;;;;;;;20.13;15.43;;;7.60;99.90;;;-141.84;90.89;21444.13;5045222;28;20266;-60
2023/10/19 04:17:43;;;;;;;21.47;16.27;;;7.60;99.90;;;-141.84;91.18;22131.41;5044946;28;20229;-58
2023/10/19 04:20:28;;;;;;;21.93;17.03;;;7.60;99.90;;;-141.84;91.00;22052.09;5036608;28;20229;-57
2023/10/19 04:22:58;;;;;;;19.73;16.20;;;7.60;99.90;;;-141.84;90.97;21743.03;5045061;28;20241;-60
2023/10/19 04:25:27;;;;;;;20.47;16.13;;;7.60;99.90;;;-141.84;90.96;22058.22;5044660;28;20233;-59
2023/10/19 04:27:57;;;;;;;22.50;16.63;;;7.60;99.90;;;-141.84;91.22;22709.00;5039871;28;20557;-59
2023/10/19 04:30:26;;;;;;;23.40;16.60;;;7.60;99.90;;;-141.84;91.11;22568.66;5044897;28;20209;-58
2023/10/19 04:32:57;;;;;;;19.00;15.70;;;7.60;99.90;;;-141.84;91.22;22798.47;5044664;28;20597;-60
2023/10/19 04:35:29;;;;;;;19.43;16.10;;;7.60;99.90;;;-141.84;91.49;23453.47;5044485;28;20229;-59
2023/10/19 04:37:59;;;;;;;22.53;16.43;;;7.60;99.90;;;-141.84;91.50;24094.31;5036227;28;20769;-61
2023/10/19 04:40:28;;;;;;;20.27;16.50;;;7.60;99.90;;;-141.84;91.43;24309.97;5044642;28;20727;-57
2023/10/19 04:42:59;;;;;;;23.23;17.30;;;7.60;99.90;;;-141.84;91.26;23243.94;5044567;28;20669;-58
2023/10/19 04:45:29;;;;;;;21.63;16.93;;;7.60;99.90;;;-141.84;91.37;23593.81;5039289;28;20578;-59
2023/10/19 04:47:58;;;;;;;23.03;18.90;;;7.60;99.90;;;-141.84;91.55;24934.69;5036111;28;20282;-59
2023/10/19 04:50:26;;;;;;;21.20;16.80;;;7.50;99.90;;;-141.84;91.81;26766.63;5032064;28;20328;-59
2023/10/19 04:52:54;;;;;;;22.23;16.73;;;7.50;99.90;;;-141.84;91.76;26866.41;5043698;28;20225;-60
2023/10/19 04:55:22;;;;;;;22.77;16.77;;;7.50;99.90;;;-141.84;91.96;27809.19;5042824;28;20666;-60
2023/10/19 04:57:51;;;;;;;19.60;16.23;;;7.50;99.90;;;-141.84;92.09;29196.31;5042327;28;20854;-59
2023/10/19 05:00:21;;;;;;;22.20;16.53;;;7.50;99.90;;;-141.84;92.24;31026.19;5040778;28;20239;-61
2023/10/19 05:02:51;;;;;;;20.67;16.93;;;7.40;99.90;;;-141.84;92.41;34302.97;5044808;28;20231;-59
2023/10/19 05:05:20;;;;;;;22.03;17.37;;;7.40;99.90;;;-141.84;92.71;39393.78;5044174;28;20252;-58
2023/10/19 05:07:49;;;;;;;23.43;17.57;;;7.50;99.90;;;-141.84;92.68;40893.31;5044350;28;20233;-59
2023/10/19 05:10:19;;;;;;;22.23;17.33;;;7.50;99.90;;;-141.84;92.85;43697.78;5037487;28;20229;-59
2023/10/19 05:12:48;;;;;;;23.53;17.40;;;7.50;99.90;;;-141.84;92.93;46275.03;5043860;28;20680;-58
2023/10/19 05:15:18;;;;;;;23.00;17.80;;;7.50;99.90;;;-141.84;93.13;50729.94;5043821;28;20209;-58
2023/10/19 05:17:47;;;;;;;24.60;17.57;;;7.40;99.90;;;-141.84;93.15;53877.56;5041554;28;20224;-58
2023/10/19 05:20:16;;;;;;;25.17;16.63;;;7.50;99.90;;;-141.84;93.42;56239.94;5034877;28;20229;-59
2023/10/19 05:22:44;;;;;;;25.43;18.07;;;7.40;99.90;;;-141.84;93.44;57553.00;5043683;28;20237;-59
2023/10/19 05:25:12;;;;;;;26.13;18.60;;;7.50;99.90;;;-141.84;93.36;59129.22;5043465;28;20248;-59
2023/10/19 05:27:42;;;;;;;24.50;18.03;;;7.50;99.90;;;-141.84;93.45;59129.22;5043776;28;20241;-59
2023/10/19 05:30:11;;;;;;;23.80;17.83;;;7.40;99.90;;;-141.84;93.44;59654.75;5035325;28;20236;-59
2023/10/19 05:32:40;;;;;;;22.93;17.30;;;7.50;99.90;;;-141.84;93.46;57290.34;5042506;28;20268;-59
2023/10/19 05:35:13;;;;;;;23.07;18.20;;;7.50;99.90;;;-141.84;93.34;58341.03;5043853;28;20240;-59
2023/10/19 05:37:41;;;;;;;23.93;18.43;;;7.50;99.90;;;-141.84;93.33;58078.34;5043686;28;20636;-57
2023/10/19 05:40:14;;;;;;;21.80;17.47;;;7.40;99.90;;;-141.84;93.08;56502.53;5034306;28;20225;-59
2023/10/19 05:42:43;;;;;;;25.10;18.77;;;7.50;99.90;;;-141.84;93.05;53090.44;5043354;28;20601;-60
2023/10/19 05:45:12;;;;;;;20.90;16.00;;;7.50;99.90;;;-141.84;92.69;47584.78;5043504;28;20207;-59
2023/10/19 05:47:41;;;;;;;20.97;16.77;;;7.50;99.90;;;-141.84;92.60;43605.75;5043059;28;20487;-59
2023/10/19 05:50:14;;;;;;;20.17;16.43;;;7.50;99.90;;;-141.84;92.90;48894.97;5018603;28;20236;-58
2023/10/19 05:52:43;;;;;;;21.23;17.17;;;7.50;99.90;;;-141.84;92.98;51778.88;5042622;28;20283;-58
2023/10/19 05:55:11;;;;;;;21.30;17.10;;;7.50;99.90;;;-141.84;93.09;54402.44;5042651;28;20240;-59
2023/10/19 05:57:41;;;;;;;21.97;16.90;;;7.40;99.90;;;-141.84;93.35;60443.22;5041820;28;20256;-59
2023/10/19 06:00:13;;;;;;;22.27;17.03;;;7.40;99.90;;;-141.84;93.40;59654.75;5034520;28;20209;-60
2023/10/19 06:02:45;;;;;;;21.23;16.57;;;7.40;99.90;;;-141.84;93.41;59129.22;5041786;28;20316;-59
2023/10/19 06:05:16;;;;;;;21.80;17.10;;;7.50;99.90;;;-141.84;93.04;55714.84;5040372;28;20236;-58
2023/10/19 06:07:45;;;;;;;21.47;17.00;;;7.50;99.90;;;-141.84;92.89;54140.00;5041592;28;20229;-60
2023/10/19 06:10:18;;;;;;;23.60;17.47;;;7.60;99.90;;;-141.84;93.10;54402.44;5033810;28;20724;-59
2023/10/19 06:12:49;;;;;;;22.63;17.53;;;7.50;99.90;;;-141.84;93.38;62283.53;5041217;28;20560;-59
2023/10/19 06:15:20;;;;;;;21.33;16.53;;;7.50;99.90;;;-141.84;93.63;66229.97;5043238;28;20197;-59
2023/10/19 06:17:49;;;;;;;23.43;17.93;;;7.60;99.90;;;-141.84;93.94;69916.81;5042806;28;20280;-59
2023/10/19 06:20:24;;;;;;;23.53;17.97;;;7.60;99.90;;;-141.84;94.23;73079.69;5037103;28;20229;-58
2023/10/19 06:22:55;;;;;;;24.57;17.17;;;7.50;99.90;;;-141.84;94.22;74662.09;5042288;28;20247;-59
2023/10/19 06:25:25;;;;;;;22.10;17.47;;;7.50;99.90;;;-141.84;94.42;78356.72;5043375;28;20228;-60
2023/10/19 06:27:57;;;;;;;22.90;17.27;;;7.60;99.90;;;-141.84;94.25;78620.75;5038320;28;20213;-59
2023/10/19 06:30:26;;;;;;;22.47;17.27;;;7.60;99.90;;;-141.84;94.06;75189.69;5041469;28;20245;-60
2023/10/19 06:32:56;;;;;;;22.23;17.03;;;7.70;99.90;;;-141.84;93.94;73607.09;5042873;28;20239;-59
2023/10/19 06:35:26;;;;;;;22.47;17.77;;;7.70;99.90;;;-141.84;94.08;75453.50;5042912;28;20298;-60
2023/10/19 06:37:56;;;;;;;22.60;18.10;;;7.70;99.90;;;-141.84;94.54;80469.50;5034757;28;20796;-64
2023/10/19 06:40:25;;;;;;;23.70;18.13;;;7.70;99.90;;;-141.84;94.67;82847.66;5042402;28;20279;-60
2023/10/19 06:42:56;;;;;;;25.07;18.40;;;7.70;99.90;;;-141.84;95.00;87079.03;5041803;28;20232;-59
2023/10/19 06:45:25;;;;;;;21.53;17.50;;;7.70;99.90;;;-141.84;95.06;86814.44;5040672;28;20216;-58
2023/10/19 06:47:54;;;;;;;23.37;17.83;;;7.70;99.90;;;-141.84;95.08;88402.22;5038093;28;20233;-58
2023/10/19 06:50:25;;;;;;;24.87;19.07;;;7.80;99.90;;;-141.84;94.81;86814.44;5041383;28;20233;-58
2023/10/19 06:52:55;;;;;;;21.93;17.87;;;7.80;99.90;;;-141.84;94.79;86020.75;5042704;28;20286;-59
2023/10/19 06:55:23;;;;;;;24.77;17.93;;;7.90;99.90;;;-141.84;95.09;88137.56;5042573;28;20228;-59
2023/10/19 06:57:55;;;;;;;22.67;18.73;;;7.80;99.90;;;-141.84;95.25;88931.63;5034723;28;20830;-60
2023/10/19 07:00:27;;;;;;;24.13;18.20;;;7.90;99.90;;;-141.84;95.24;90520.28;5041691;28;20236;-60
2023/10/19 07:03:00;;;;;;;25.03;18.90;;;7.90;99.90;;;-141.84;95.44;93434.41;5040572;28;20229;-57
2023/10/19 07:05:30;;;;;;;24.03;18.90;;;8.00;99.90;;;-141.84;95.10;91049.97;5042119;28;20286;-58
2023/10/19 07:08:01;;;;;;;24.87;18.70;;;8.20;99.90;;;-141.84;94.89;87872.91;5023201;28;20253;-59
2023/10/19 07:10:30;;;;;;;27.73;19.73;;;8.10;99.90;;;-141.84;94.82;86020.75;5041438;28;20239;-62
2023/10/19 07:12:58;;;;;;;23.70;18.13;;;8.10;99.90;;;-141.84;95.01;86020.75;5040650;28;20700;-60
2023/10/19 07:15:29;;;;;;;23.30;18.07;;;8.00;99.90;;;-141.84;94.75;83640.72;5023296;28;20301;-60
2023/10/19 07:17:58;;;;;;;24.27;19.17;;;8.10;99.90;;;-141.84;94.46;81526.28;5016797;28;20230;-60
2023/10/19 07:20:27;;;;;;;23.93;17.83;;;8.20;99.90;;;-141.84;94.21;80997.84;5045098;28;20233;-60
2023/10/19 07:22:56;;;;;;;24.23;18.83;;;8.20;99.90;;;-141.84;94.45;81262.06;5046567;28;20233;-59
2023/10/19 07:25:26;;;;;;;23.73;18.53;;;8.20;99.90;;;-141.84;94.60;84169.50;5046002;28;20225;-60
2023/10/19 07:27:54;;;;;;;23.77;18.97;;;8.20;99.90;;;-141.84;94.53;82583.34;5038060;28;20701;-60
2023/10/19 07:30:26;;;;;;;24.07;18.47;;;8.20;99.90;;;-141.84;94.88;86285.31;5046444;28;20205;-59
2023/10/19 07:32:58;;;;;;;24.47;19.47;;;8.20;99.90;;;-141.84;94.75;85227.25;5045598;28;20229;-59
2023/10/19 07:35:27;;;;;;;25.17;18.80;;;8.30;99.90;;;-141.84;94.97;86814.44;5046238;28;20640;-58
2023/10/19 07:37:57;;;;;;;25.27;19.50;;;8.30;99.90;;;-141.84;95.26;90520.28;5038258;28;20647;-61
2023/10/19 07:40:27;;;;;;;26.13;18.40;;;8.30;99.90;;;-141.84;95.29;91579.72;5046289;28;20244;-61
2023/10/19 07:42:55;;;;;;;24.70;20.17;;;8.40;99.90;;;-141.84;95.35;93169.38;5045061;28;20321;-60
2023/10/19 07:45:25;;;;;;;23.93;18.97;;;8.40;99.90;;;-141.84;95.23;92639.44;5046488;28;20205;-59
2023/10/19 07:47:53;;;;;;;23.73;18.83;;;8.40;99.90;;;-141.84;94.67;88137.56;5042449;28;20229;-60
2023/10/19 07:50:22;;;;;;;23.30;18.97;;;8.50;99.90;;;-141.84;94.56;84962.78;5025717;28;20307;-60
2023/10/19 07:52:53;;;;;;;23.10;18.53;;;8.50;99.90;;;-141.84;94.67;86020.75;5045840;28;20294;-60
2023/10/19 07:55:23;;;;;;;21.60;17.30;;;8.60;99.90;;;-141.84;94.73;86285.31;5045395;28;20229;-59
2023/10/19 07:57:55;;;;;;;23.37;18.13;;;;;;;-141.84;94.99;87343.63;5044244;28;20755;-60
2023/10/19 08:00:24;;;;;;;27.67;19.97;;;8.50;99.90;;;-141.84;94.88;88931.63;5020703;28;20630;-59
2023/10/19 08:02:55;;;;;;;26.30;19.33;;;8.70;99.90;;;-141.84;94.74;87608.25;5045190;28;20328;-59
2023/10/19 08:05:23;;;;;;;25.13;19.97;;;8.70;99.90;;;-141.84;94.83;88137.56;5045356;28;20228;-60
2023/10/19 08:07:51;;;;;;;24.80;20.00;;;8.70;99.90;;;-141.84;94.97;89990.66;5044867;28;20233;-61
2023/10/19 08:10:21;;;;;;;27.27;20.37;;;8.90;99.90;;;-141.84;94.50;85756.25;5042382;28;20279;-60
2023/10/19 08:12:51;;;;;;;23.83;19.77;;;8.90;99.90;;;-141.84;94.74;85756.25;5044735;28;20292;-60
2023/10/19 08:15:21;;;;;;;25.13;19.33;;;8.90;99.90;;;-141.84;94.16;80733.66;5045115;28;20297;-59
2023/10/19 08:17:53;;;;;;;23.90;19.20;;;;;;;-141.84;94.16;79412.97;5045257;28;20260;-59
2023/10/19 08:20:30;;;;;;;25.83;20.23;;;9.00;99.90;;;-141.84;93.77;75453.50;5045557;28;20326;-60
2023/10/19 08:23:01;;;;;;;25.57;19.40;;;9.10;99.90;;;-141.84;93.99;76508.97;5045441;28;20735;-59
2023/10/19 08:25:30;;;;;;;24.60;18.93;;;9.20;99.90;;;-141.84;92.67;62546.50;5045335;28;20648;-59
2023/10/19 08:28:01;;;;;;;21.20;16.67;;;9.40;99.90;;;-141.84;92.14;46013.16;5037908;28;20732;-61
2023/10/19 08:30:31;;;;;;;19.60;16.97;;;9.40;99.90;;;-141.84;92.31;49157.03;5045120;28;20205;-61
2023/10/19 08:32:59;;;;;;;21.47;17.53;;;9.40;99.90;;;-141.84;92.65;54664.88;5044936;28;20675;-59
2023/10/19 08:35:28;;;;;;;20.47;17.57;;;9.40;99.90;;;-141.84;92.92;60180.38;5044885;28;20233;-60
2023/10/19 08:37:58;;;;;;;20.67;17.37;;;9.40;99.90;;;-141.84;92.83;60180.38;5037168;28;20747;-59
2023/10/19 08:40:28;;;;;;;18.40;16.40;;;9.50;99.90;;;-141.84;92.86;58866.47;5044983;28;20229;-61
2023/10/19 08:42:56;;;;;;;19.80;17.10;;;9.50;99.90;;;-141.84;92.94;61757.66;5044266;28;20245;-59
2023/10/19 08:45:26;;;;;;;21.67;16.90;;;9.50;99.90;;;-141.84;92.99;62546.50;5041859;28;20205;-58
2023/10/19 08:47:59;;;;;;;19.83;17.27;;;9.60;99.90;;;-141.84;92.74;59654.75;5037461;28;20248;-59
2023/10/19 08:50:30;;;;;;;18.90;16.20;;;9.70;99.90;;;-141.84;92.70;58866.47;5044592;28;20256;-60
2023/10/19 08:53:01;;;;;;;21.07;17.00;;;9.70;99.90;;;-141.84;92.33;51254.38;5044934;28;20244;-59
2023/10/19 08:55:31;;;;;;;18.73;16.47;;;9.80;99.90;;;-141.84;91.67;39898.34;5044429;28;20237;-59
2023/10/19 08:58:14;;;;;;;19.17;16.47;;;10.00;99.90;;;-141.84;91.46;35980.13;5035862;28;20511;-58
2023/10/19 09:00:48;;;;;;;18.97;15.67;;;10.00;99.90;;;-141.84;91.31;31523.56;5043426;28;20292;-58
2023/10/19 09:03:19;;;;;;;18.33;16.30;;;10.10;99.90;;;-141.84;91.10;29320.59;5045116;28;20244;-59
2023/10/19 09:05:48;;;;;;;20.57;16.40;;;10.20;99.90;;;-141.84;90.32;25170.75;5044267;28;20229;-58
2023/10/19 09:08:19;;;;;;;19.43;16.23;;;10.30;99.90;;;-141.84;90.12;23547.03;5036441;28;20743;-59
2023/10/19 09:10:51;;;;;;;18.10;16.20;;;10.40;99.90;;;-141.84;89.22;21598.66;5044293;28;20225;-60
2023/10/19 09:13:22;;;;;;;19.00;15.37;;;10.50;99.90;;;-141.84;88.32;20659.38;5044476;28;20311;-59
2023/10/19 09:15:53;;;;;;;16.33;14.47;;;10.60;99.90;;;-141.84;87.83;20340.25;5044452;28;20209;-60
2023/10/19 09:18:27;;;;;;;16.93;15.10;;;10.70;99.90;;;-141.84;87.46;20214.22;5044632;28;20224;-58
2023/10/19 09:21:02;;;;;;;17.50;15.07;;;10.70;99.90;;;-141.84;86.96;20078.06;5043649;28;20243;-60
2023/10/19 09:23:31;;;;;;;18.47;14.63;;;10.80;99.90;;;-141.84;85.79;19891.06;5043725;28;20221;-59
2023/10/19 09:26:03;;;;;;;15.93;13.47;;;10.90;99.90;;;-141.84;85.04;19819.94;5036120;28;20692;-60
2023/10/19 09:28:34;;;;;;;15.77;14.07;;;11.00;99.90;;;-141.84;84.74;19793.50;5044022;28;20245;-59
2023/10/19 09:31:04;;;;;;;16.00;14.30;;;11.00;99.90;;;-141.84;84.83;19793.50;5043900;28;20312;-57
2023/10/19 09:33:34;;;;;;;15.27;13.63;;;11.00;99.90;;;-141.84;84.62;19824.00;5044538;28;20616;-59
2023/10/19 09:36:12;;;;;;;17.53;14.73;;;11.10;99.90;;;-141.84;82.62;19754.91;5035849;28;20284;-58
2023/10/19 09:38:44;;;;;;;15.37;13.77;;;11.30;99.90;;;-141.84;82.92;19736.59;5043825;28;20233;-59
2023/10/19 09:41:14;;;;;;;15.70;13.27;;;11.30;99.90;;;-141.84;83.17;19746.78;5043160;28;20313;-59
2023/10/19 09:43:45;;;;;;;14.47;12.57;;;11.40;99.90;;;-141.84;83.46;19805.72;5042183;28;20316;-59
2023/10/19 09:46:23;;;;;;;15.30;13.60;;;11.50;99.90;;;-141.84;82.71;19838.22;5034971;28;20225;-58
2023/10/19 09:48:53;;;;;;;15.50;13.83;;;11.80;99.90;;;-141.84;81.82;19828.06;5043541;28;20217;-58
2023/10/19 09:51:24;;;;;;;14.53;13.03;;;12.00;99.90;;;-141.84;81.29;19862.63;5043616;28;20236;-59
2023/10/19 09:54:02;;;;;;;14.23;12.82;;;12.20;99.90;;;-141.84;80.02;19819.94;5041367;28;20265;-59
2023/10/19 09:56:37;;;;;;;15.55;13.90;;;12.30;99.90;;;-141.84;78.25;19838.22;5042706;28;20295;-59
2023/10/19 09:59:13;;;;;;;14.47;13.07;;;12.40;99.90;;;-141.84;78.18;19836.19;5043122;28;20652;-59
2023/10/19 10:02:07;;;;;;;14.90;13.27;;;12.50;99.90;;;-141.84;77.92;19813.84;5043300;28;20221;-59
2023/10/19 10:04:37;;;;;;;14.98;13.48;;;12.50;99.90;;;-141.84;77.99;19832.13;5020518;28;20238;-59
2023/10/19 10:07:07;;;;;;;14.63;13.13;;;12.50;99.90;;;-141.84;77.18;19842.28;5033157;28;20566;-59
2023/10/19 10:09:43;;;;;;;14.45;13.05;;;12.60;99.90;;;-141.84;77.69;19838.22;5043345;28;20209;-58
2023/10/19 10:12:21;;;;;;;14.23;12.73;;;12.60;99.90;;;-141.84;78.34;19864.66;5035397;28;20217;-68
2023/10/19 10:15:07;;;;;;;14.60;13.00;;;12.70;99.90;;;-141.84;78.28;19884.97;5042914;28;20255;-68
2023/10/19 10:17:38;;;;;;;14.57;13.07;;;12.90;99.90;;;-141.84;77.82;19895.13;5042638;28;20221;-67
2023/10/19 10:20:35;;;;;;;13.75;12.35;;;13.00;99.90;;;-141.84;77.25;19889.03;5034970;28;20248;-68